Time;durP1;ratioP1;P1;durP2;ratioP2;P2;SDS_P1;SDS_P2;PMS_P1;PMS_P2;Temp;Humidity;BMP_temperature;BMP_pressure;BME280_temperature;BME280_humidity;BME280_pressure;Samples;Min_cycle;Max_cycle;Signal;HPM_P1;HPM_P2
2024/02/27 00:01:40;;;;;;;14.90;12.20;;;;;;;6.15;88.92;96091.40;108861;1272;23742;-72
2024/02/27 00:04:14;;;;;;;16.80;12.20;;;;;;;6.22;89.48;96089.88;108860;1271;22518;-72
2024/02/27 00:06:54;;;;;;;18.90;14.30;;;;;;;6.30;89.69;96090.04;108806;1271;22542;-73
2024/02/27 00:09:28;;;;;;;28.40;23.70;;;;;;;6.13;88.29;96094.93;108781;1271;23323;-72
2024/02/27 00:12:11;;;;;;;15.60;12.50;;;;;;;5.93;88.28;96095.27;108817;1271;22763;-72
2024/02/27 00:14:45;;;;;;;14.60;11.80;;;;;;;5.84;89.04;96098.45;108822;1269;22507;-72
2024/02/27 00:17:18;;;;;;;14.40;10.20;;;;;;;6.01;90.23;96103.97;108763;1266;142060;-72
2024/02/27 00:19:50;;;;;;;13.10;10.70;;;;;;;6.14;90.56;96096.92;108870;1271;22567;-73
2024/02/27 00:22:23;;;;;;;14.90;12.10;;;;;;;6.21;90.51;96096.05;108887;1268;26679;-73
2024/02/27 00:24:57;;;;;;;14.60;11.30;;;;;;;6.35;90.77;96101.94;108827;1268;22577;-73
2024/02/27 00:27:28;;;;;;;17.00;14.00;;;;;;;6.42;90.51;96105.52;108853;1271;22558;-73
2024/02/27 00:29:59;;;;;;;18.50;14.40;;;;;;;6.37;90.06;96111.70;108871;1269;22521;-73
2024/02/27 00:32:33;;;;;;;16.50;13.60;;;;;;;6.26;89.78;96109.36;108851;1271;22535;-73
2024/02/27 00:35:05;;;;;;;17.10;13.10;;;;;;;6.20;90.00;96111.36;108877;1271;23780;-73
2024/02/27 00:37:39;;;;;;;15.60;12.90;;;;;;;6.22;90.38;96109.63;108842;1265;22709;-73
2024/02/27 00:40:15;;;;;;;15.30;11.60;;;;;;;6.30;90.97;96115.48;108874;1271;24025;-74
2024/02/27 00:42:48;;;;;;;15.10;10.70;;;;;;;6.28;90.26;96119.78;108827;1272;25522;-74
2024/02/27 00:45:20;;;;;;;14.00;11.10;;;;;;;6.02;89.27;96116.27;108804;1272;22861;-74
2024/02/27 00:47:57;;;;;;;13.00;10.60;;;;;;;5.73;89.32;96113.52;108845;1265;22523;-73
2024/02/27 00:50:29;;;;;;;12.00;10.50;;;;;;;5.66;90.16;96109.82;108831;1271;22531;-73
2024/02/27 00:53:05;;;;;;;12.20;10.30;;;;;;;5.74;91.17;96107.36;108859;1271;22526;-73
2024/02/27 00:55:43;;;;;;;13.10;10.50;;;;;;;5.84;91.54;96113.73;108896;1271;22568;-73
2024/02/27 00:58:23;;;;;;;12.20;9.80;;;;;;;5.95;91.84;96107.64;108849;1271;22532;-73
2024/02/27 01:00:56;;;;;;;11.40;9.60;;;;;;;6.09;92.13;96108.88;108892;1271;22996;-74
2024/02/27 01:03:30;;;;;;;11.90;10.70;;;;;;;6.17;92.04;96107.14;108914;1271;26606;-74
2024/02/27 01:06:03;;;;;;;13.30;10.50;;;;;;;6.09;91.07;96103.34;108812;1268;25265;-73
2024/02/27 01:08:35;;;;;;;14.10;10.30;;;;;;;5.91;91.04;96103.98;108848;1272;24321;-73
2024/02/27 01:11:10;;;;;;;10.40;9.10;;;;;;;5.95;91.88;96106.17;108816;1271;23436;-73
2024/02/27 01:13:41;;;;;;;12.20;9.90;;;;;;;6.05;92.25;96112.08;108866;1262;22522;-73
2024/02/27 01:16:17;;;;;;;13.50;10.00;;;;;;;6.12;92.36;96108.72;108851;1271;22531;-73
2024/02/27 01:18:51;;;;;;;11.90;9.20;;;;;;;6.15;92.34;96104.98;108846;1269;25411;-73
2024/02/27 01:21:22;;;;;;;12.20;9.50;;;;;;;6.20;92.75;96104.05;108806;1266;26811;-73
2024/02/27 01:23:58;;;;;;;13.30;11.10;;;;;;;6.26;92.70;96103.20;108869;1272;24159;-73
2024/02/27 01:26:32;;;;;;;14.00;11.90;;;;;;;6.38;93.17;96106.31;108794;1271;22924;-73
2024/02/27 01:29:07;;;;;;;12.60;10.60;;;;;;;6.52;93.30;96103.00;108826;1271;22531;-73
2024/02/27 01:31:44;;;;;;;11.70;9.10;;;;;;;6.58;93.04;96106.45;108888;1272;22520;-73
2024/02/27 01:34:17;;;;;;;12.00;9.50;;;;;;;6.43;91.96;96099.26;108879;1271;22529;-73
2024/02/27 01:36:52;;;;;;;16.10;11.90;;;;;;;6.29;91.65;96102.36;108850;1271;22556;-73
2024/02/27 01:39:23;;;;;;;13.60;12.20;;;;;;;6.07;91.37;96102.61;108847;1271;22563;-73
2024/02/27 01:41:54;;;;;;;14.60;12.50;;;;;;;6.01;91.80;96102.27;108813;1271;23000;-73
2024/02/27 01:44:25;;;;;;;13.90;10.60;;;;;;;6.02;91.92;96104.27;108886;1269;22565;-73
2024/02/27 01:46:59;;;;;;;12.70;10.30;;;;;;;6.03;92.29;96103.33;108819;1266;22650;-74
2024/02/27 01:49:36;;;;;;;11.10;8.90;;;;;;;6.12;92.83;96100.51;108895;1269;22537;-73
2024/02/27 01:52:10;;;;;;;11.00;9.70;;;;;;;6.09;92.14;96098.77;108862;1271;22619;-73
2024/02/27 01:54:45;;;;;;;14.30;10.90;;;;;;;5.99;92.48;96098.08;108855;1271;22542;-73
2024/02/27 01:57:22;;;;;;;13.50;11.80;;;;;;;6.03;93.00;96099.39;108798;1271;22543;-73
2024/02/27 01:59:56;;;;;;;13.00;10.70;;;;;;;6.12;93.32;96097.93;108875;1271;22524;-73
2024/02/27 02:02:34;;;;;;;13.50;11.70;;;;;;;6.19;93.48;96098.46;108879;1271;23914;-73
2024/02/27 02:05:07;;;;;;;15.20;11.30;;;;;;;6.23;93.39;96101.84;108850;1268;26798;-73
2024/02/27 02:07:40;;;;;;;13.40;11.30;;;;;;;6.22;93.21;96103.31;108819;1271;22573;-73
2024/02/27 02:10:13;;;;;;;14.00;10.90;;;;;;;6.11;92.90;96109.46;108852;1271;22514;-73
2024/02/27 02:12:49;;;;;;;15.50;11.70;;;;;;;6.19;93.60;96108.83;108883;1270;24175;-73
2024/02/27 02:15:21;;;;;;;14.00;10.70;;;;;;;6.35;94.16;96110.42;108933;1271;22510;-73
2024/02/27 02:17:53;;;;;;;13.60;9.30;;;;;;;6.47;94.26;96110.16;108841;1270;22560;-73
2024/02/27 02:20:24;;;;;;;13.70;11.00;;;;;;;6.54;94.12;96109.99;108853;1271;22525;-73
2024/02/27 02:22:57;;;;;;;15.30;10.60;;;;;;;6.58;94.09;96111.89;108848;1270;22587;-73
2024/02/27 02:25:35;;;;;;;13.20;10.00;;;;;;;6.53;93.71;96112.38;108837;1271;22521;-73
2024/02/27 02:28:07;;;;;;;10.80;8.90;;;;;;;6.49;93.74;96111.16;108845;1271;24412;-73
2024/02/27 02:30:38;;;;;;;10.90;8.50;;;;;;;6.51;93.85;96112.53;108922;1259;22554;-73
2024/02/27 02:33:12;;;;;;;10.60;8.90;;;;;;;6.54;93.94;96112.73;108786;1264;25496;-73
2024/02/27 02:35:47;;;;;;;12.40;10.30;;;;;;;6.54;94.15;96115.11;108821;1269;22555;-73
2024/02/27 02:38:23;;;;;;;11.80;9.90;;;;;;;6.67;94.53;96115.63;108826;1266;22554;-73
2024/02/27 02:40:54;;;;;;;15.40;12.30;;;;;;;6.74;94.52;96115.41;108862;1250;22531;-73
2024/02/27 02:43:28;;;;;;;14.50;11.70;;;;;;;6.84;94.62;96116.02;108857;1271;24210;-73
2024/02/27 02:45:59;;;;;;;18.00;13.40;;;;;;;6.83;94.06;96120.56;108829;1271;22542;-73
2024/02/27 02:48:30;;;;;;;15.60;11.90;;;;;;;6.68;93.18;96128.27;108863;1269;22559;-74
2024/02/27 02:51:02;;;;;;;15.60;10.70;;;;;;;6.46;92.59;96126.42;108866;1271;23759;-73
2024/02/27 02:53:36;;;;;;;12.70;9.20;;;;;;;6.41;93.07;96130.75;108871;1266;23893;-73
2024/02/27 02:56:09;;;;;;;13.00;10.40;;;;;;;6.46;93.59;96133.48;108841;1272;22645;-73
2024/02/27 02:58:42;;;;;;;15.10;12.40;;;;;;;6.52;93.72;96133.44;108832;1266;22557;-73
2024/02/27 03:01:13;;;;;;;15.20;12.60;;;;;;;6.53;93.46;96137.33;108863;1251;22528;-73
2024/02/27 03:03:47;;;;;;;16.40;10.80;;;;;;;6.54;93.63;96142.13;108881;1271;25284;-73
2024/02/27 03:06:20;;;;;;;12.00;9.50;;;;;;;6.60;93.94;96145.75;108842;1271;22511;-73
2024/02/27 03:08:54;;;;;;;14.10;11.10;;;;;;;6.66;94.15;96148.87;108955;1271;22664;-73
2024/02/27 03:11:28;;;;;;;17.20;14.50;;;;;;;6.73;94.30;96144.59;108992;1272;22552;-73
2024/02/27 03:14:03;;;;;;;15.40;12.80;;;;;;;6.81;94.67;96145.27;108980;1271;22514;-73
2024/02/27 03:16:36;;;;;;;19.30;13.20;;;;;;;6.88;94.59;96151.58;108912;1254;22523;-73
2024/02/27 03:19:09;;;;;;;14.40;11.50;;;;;;;6.86;94.18;96150.42;108786;1272;22519;-73
2024/02/27 03:21:44;;;;;;;14.40;9.90;;;;;;;6.81;94.00;96149.86;108785;1271;25261;-73
2024/02/27 03:24:16;;;;;;;12.00;9.40;;;;;;;6.87;94.26;96151.69;108803;1272;22509;-73
2024/02/27 03:26:51;;;;;;;11.30;9.60;;;;;;;6.94;94.35;96150.85;108817;1273;23828;-73
2024/02/27 03:29:21;;;;;;;12.50;10.30;;;;;;;6.99;94.52;96147.92;108786;1270;22529;-73
2024/02/27 03:31:57;;;;;;;12.80;11.40;;;;;;;7.05;94.32;96152.79;108815;1256;22536;-73
2024/02/27 03:34:29;;;;;;;15.10;11.10;;;;;;;7.10;94.33;96157.62;108828;1272;22558;-73
2024/02/27 03:37:04;;;;;;;15.40;11.50;;;;;;;7.03;93.52;96161.48;108882;1270;23024;-74
2024/02/27 03:39:40;;;;;;;12.50;9.80;;;;;;;6.94;93.77;96162.91;108778;1273;25045;-73
2024/02/27 03:42:14;;;;;;;14.10;10.90;;;;;;;6.95;94.04;96163.28;108826;1272;22526;-73
2024/02/27 03:44:54;;;;;;;14.70;11.60;;;;;;;6.94;93.95;96158.02;108823;1273;23027;-73
2024/02/27 03:47:26;;;;;;;11.60;9.30;;;;;;;6.98;94.20;96152.20;108793;1257;22818;-73
2024/02/27 03:49:58;;;;;;;10.60;8.70;;;;;;;7.04;94.48;96158.05;108814;1272;22545;-73
2024/02/27 03:52:30;;;;;;;14.10;10.20;;;;;;;7.03;94.13;96161.86;108780;1272;25424;-73
2024/02/27 03:55:05;;;;;;;14.20;11.90;;;;;;;6.97;94.12;96160.02;108843;1271;25428;-73
2024/02/27 03:57:38;;;;;;;11.40;9.30;;;;;;;6.98;94.07;96165.85;108753;1272;24523;-73
2024/02/27 04:00:13;;;;;;;12.00;10.20;;;;;;;6.93;93.80;96162.50;108792;1270;26790;-73
2024/02/27 04:02:48;;;;;;;12.90;9.80;;;;;;;6.88;94.12;96164.11;108870;1256;22526;-73
2024/02/27 04:05:20;;;;;;;12.00;9.80;;;;;;;6.94;94.55;96162.91;108805;1272;22517;-73
2024/02/27 04:07:54;;;;;;;15.30;11.60;;;;;;;7.09;94.77;96164.36;108792;1271;22534;-73
2024/02/27 04:10:26;;;;;;;17.10;13.10;;;;;;;7.14;94.50;96168.52;108781;1273;22541;-73
2024/02/27 04:13:00;;;;;;;17.10;12.60;;;;;;;7.13;94.19;96164.56;108831;1272;25426;-74
2024/02/27 04:15:31;;;;;;;15.10;11.90;;;;;;;7.15;94.36;96168.66;108755;1270;25159;-74
2024/02/27 04:18:07;;;;;;;12.90;10.90;;;;;;;7.20;94.08;96172.05;108787;1270;22522;-73
2024/02/27 04:20:41;;;;;;;15.30;13.30;;;;;;;7.22;94.32;96169.30;108848;1272;25735;-74
2024/02/27 04:23:12;;;;;;;14.80;13.20;;;;;;;7.25;94.22;96170.30;108798;1273;22542;-74
2024/02/27 04:25:46;;;;;;;12.50;9.80;;;;;;;7.28;94.08;96167.27;108808;1272;22523;-74
2024/02/27 04:28:25;;;;;;;13.20;11.00;;;;;;;7.28;93.86;96176.98;108783;1273;23305;-74
2024/02/27 04:31:01;;;;;;;11.50;9.20;;;;;;;7.20;93.56;96181.42;108786;1272;22508;-73
2024/02/27 04:33:34;;;;;;;13.60;10.50;;;;;;;7.06;93.36;96184.77;108757;1272;24971;-74
2024/02/27 04:36:19;;;;;;;12.60;10.20;;;;;;;6.93;93.61;96184.16;108817;1270;22531;-73
2024/02/27 04:38:52;;;;;;;11.90;10.00;;;;;;;6.91;93.88;96186.02;108795;1272;22635;-73
2024/02/27 04:41:25;;;;;;;11.40;10.20;;;;;;;6.89;94.00;96183.05;108821;1272;25289;-73
2024/02/27 04:43:59;;;;;;;12.40;9.20;;;;;;;6.90;94.33;96185.80;108783;1272;22556;-73
2024/02/27 04:46:32;;;;;;;11.10;9.50;;;;;;;6.94;94.56;96186.31;108766;1272;22572;-73
2024/02/27 04:49:03;;;;;;;13.10;11.20;;;;;;;7.01;94.69;96191.41;108805;1269;22543;-73
2024/02/27 04:51:34;;;;;;;14.90;12.30;;;;;;;7.07;94.72;96196.11;108771;1267;22523;-73
2024/02/27 04:54:10;;;;;;;14.50;11.20;;;;;;;7.11;94.41;96193.77;108797;1269;22592;-73
2024/02/27 04:56:44;;;;;;;12.20;10.10;;;;;;;7.16;94.53;96195.14;108766;1272;24247;-73
2024/02/27 04:59:16;;;;;;;13.70;11.10;;;;;;;7.21;94.39;96197.92;108769;1270;22526;-73
2024/02/27 05:01:53;;;;;;;17.00;12.90;;;;;;;7.26;94.33;96200.61;108804;1272;24228;-73
2024/02/27 05:04:24;;;;;;;14.20;11.50;;;;;;;7.30;94.16;96203.75;108822;1266;25451;-73
2024/02/27 05:07:03;;;;;;;13.90;10.40;;;;;;;7.33;94.14;96205.77;108814;1272;24314;-73
2024/02/27 05:09:34;;;;;;;13.40;10.70;;;;;;;7.36;93.81;96207.55;108790;1272;22523;-73
2024/02/27 05:12:08;;;;;;;14.90;12.80;;;;;;;7.36;93.70;96210.35;108843;1272;22527;-73
2024/02/27 05:14:47;;;;;;;17.60;13.20;;;;;;;7.36;93.60;96209.45;108845;1273;22530;-73
2024/02/27 05:17:17;;;;;;;;;;;;;;;7.37;93.63;96207.61;108828;1267;24260;-73
2024/02/27 05:19:50;;;;;;;11.90;9.90;;;;;;;7.36;93.40;96210.67;108882;1271;22563;-73
2024/02/27 05:22:22;;;;;;;13.30;11.40;;;;;;;7.35;93.35;96212.77;108883;1268;22523;-73
2024/02/27 05:24:55;;;;;;;15.30;12.90;;;;;;;7.28;93.29;96212.83;108933;1270;22648;-73
2024/02/27 05:27:26;;;;;;;13.70;10.70;;;;;;;7.27;93.46;96213.84;108889;1271;25487;-73
2024/02/27 05:29:57;;;;;;;12.80;10.50;;;;;;;7.23;93.24;96218.33;108856;1267;25455;-73
2024/02/27 05:32:30;;;;;;;12.10;9.00;;;;;;;7.27;93.61;96223.96;108882;1271;22728;-73
2024/02/27 05:35:04;;;;;;;12.40;9.90;;;;;;;7.39;93.73;96226.42;108867;1272;22528;-73
2024/02/27 05:37:37;;;;;;;11.80;9.90;;;;;;;7.54;93.68;96225.27;108881;1270;25086;-73
2024/02/27 05:40:13;;;;;;;11.80;9.60;;;;;;;7.67;93.46;96229.15;108879;1271;25431;-73
2024/02/27 05:42:48;;;;;;;12.30;9.50;;;;;;;7.75;93.09;96227.27;108883;1271;22538;-73
2024/02/27 05:45:23;;;;;;;11.30;8.90;;;;;;;7.84;92.90;96229.83;108856;1271;24065;-73
2024/02/27 05:47:57;;;;;;;12.80;8.70;;;;;;;7.89;92.52;96233.58;108859;1271;22548;-73
2024/02/27 05:50:35;;;;;;;12.10;8.70;;;;;;;8.01;92.75;96235.31;108898;1267;22767;-73
2024/02/27 05:53:06;;;;;;;12.80;9.00;;;;;;;8.13;92.25;96241.96;108885;1271;22537;-73
2024/02/27 05:55:37;;;;;;;11.20;9.60;;;;;;;8.17;91.67;96240.84;108872;1271;24299;-73
2024/02/27 05:58:08;;;;;;;13.40;11.20;;;;;;;8.23;91.63;96240.33;108824;1270;23575;-73
2024/02/27 06:00:39;;;;;;;11.10;9.20;;;;;;;8.27;91.30;96242.16;108836;1272;22519;-73
2024/02/27 06:03:10;;;;;;;9.80;8.70;;;;;;;8.29;90.94;96239.61;108877;1271;24215;-73
2024/02/27 06:05:42;;;;;;;12.10;9.70;;;;;;;8.33;90.87;96243.95;108838;1266;22549;-74
2024/02/27 06:08:14;;;;;;;13.10;10.00;;;;;;;8.31;90.47;96246.58;108895;1271;22663;-74
2024/02/27 06:10:46;;;;;;;11.80;9.60;;;;;;;8.25;90.44;96240.96;108879;1248;22532;-73
2024/02/27 06:13:23;;;;;;;11.80;8.70;;;;;;;8.27;90.39;96242.31;108847;1271;24167;-73
2024/02/27 06:15:57;;;;;;;12.20;10.10;;;;;;;8.29;90.17;96249.59;108894;1271;23801;-73
2024/02/27 06:18:28;;;;;;;13.70;10.40;;;;;;;8.26;90.01;96249.92;108883;1271;23998;-73
2024/02/27 06:24:01;;;;;;;12.30;10.50;;;;;;;8.33;89.92;96258.10;108912;1271;23241;-73
2024/02/27 06:26:34;;;;;;;11.90;10.10;;;;;;;8.34;89.94;96263.23;108846;1271;26446;-74
2024/02/27 06:29:06;;;;;;;12.30;9.30;;;;;;;8.37;89.88;96265.86;108872;1271;22538;-73
2024/02/27 06:31:37;;;;;;;10.70;8.70;;;;;;;8.40;89.57;96269.49;108868;1270;22616;-73
2024/02/27 06:34:08;;;;;;;11.50;9.20;;;;;;;8.36;89.44;96273.80;108843;1271;22655;-73
2024/02/27 06:36:39;;;;;;;13.10;10.80;;;;;;;8.35;89.44;96273.38;108838;1271;22529;-73
2024/02/27 06:39:13;;;;;;;13.20;10.90;;;;;;;8.35;89.32;96276.97;108861;1271;27142;-73
2024/02/27 06:41:53;;;;;;;13.20;9.80;;;;;;;8.33;89.25;96276.31;108893;1267;22537;-73
2024/02/27 06:44:28;;;;;;;12.60;9.90;;;;;;;8.37;89.35;96279.97;108841;1269;22531;-73
2024/02/27 06:47:03;;;;;;;12.20;10.60;;;;;;;8.41;89.32;96284.48;108855;1271;22539;-73
2024/02/27 06:49:35;;;;;;;12.50;9.40;;;;;;;8.49;89.20;96286.56;108894;1271;25420;-73
2024/02/27 06:52:07;;;;;;;11.30;8.60;;;;;;;8.55;89.14;96282.88;108902;1271;23375;-73
2024/02/27 06:54:42;;;;;;;11.10;8.60;;;;;;;8.59;89.06;96282.17;108885;1268;22520;-73
2024/02/27 06:57:16;;;;;;;13.00;9.90;;;;;;;8.66;89.18;96285.30;108767;1265;22517;-73
2024/02/27 06:59:47;;;;;;;10.60;8.90;;;;;;;8.76;89.26;96289.27;108877;1270;22540;-73
2024/02/27 07:02:21;;;;;;;11.20;8.30;;;;;;;8.85;89.27;96289.79;108846;1264;22536;-73
2024/02/27 07:04:55;;;;;;;13.00;8.10;;;;;;;8.97;89.03;96291.13;108952;1266;22518;-73
2024/02/27 07:07:26;;;;;;;11.40;9.30;;;;;;;9.00;88.69;96296.23;108818;1265;25304;-74
2024/02/27 07:10:00;;;;;;;12.20;10.10;;;;;;;9.00;88.55;96297.49;108909;1261;22553;-73
2024/02/27 07:12:39;;;;;;;12.80;11.30;;;;;;;9.03;88.51;96296.81;108873;1271;25285;-73
2024/02/27 07:15:12;;;;;;;15.80;11.20;;;;;;;9.08;88.51;96298.67;108958;1267;22532;-73
2024/02/27 07:17:48;;;;;;;15.00;12.20;;;;;;;9.11;88.38;96300.23;109035;1271;22726;-73
2024/02/27 07:20:25;;;;;;;12.10;10.30;;;;;;;9.12;88.23;96307.36;108968;1271;25527;-73
2024/02/27 07:23:00;;;;;;;13.30;10.70;;;;;;;9.15;88.23;96309.09;108978;1266;23033;-73
2024/02/27 07:25:32;;;;;;;15.40;11.90;;;;;;;9.19;88.14;96308.96;108908;1265;22535;-72
2024/02/27 07:28:03;;;;;;;16.10;12.80;;;;;;;9.23;88.12;96308.08;108938;1265;22580;-72
2024/02/27 07:30:37;;;;;;;13.20;11.80;;;;;;;9.29;88.10;96308.03;108988;1271;25300;-73
2024/02/27 07:33:10;;;;;;;11.60;10.20;;;;;;;9.40;88.18;96303.08;108971;1264;22520;-73
2024/02/27 07:35:46;;;;;;;14.90;10.40;;;;;;;9.54;88.17;96302.11;108965;1268;23049;-73
2024/02/27 07:38:17;;;;;;;27.00;13.40;;;;;;;9.77;88.22;96297.39;109028;1271;23679;-73
2024/02/27 07:40:50;;;;;;;15.50;12.80;;;;;;;10.08;88.07;96296.85;109006;1271;23094;-74
2024/02/27 07:43:22;;;;;;;14.10;12.50;;;;;;;10.30;87.64;96304.09;108924;1271;22517;-74
2024/02/27 07:45:56;;;;;;;12.40;10.50;;;;;;;10.56;87.40;96305.83;108948;1271;22582;-73
2024/02/27 07:48:28;;;;;;;12.10;10.00;;;;;;;10.92;87.00;96303.70;108949;1265;22514;-73
2024/02/27 07:51:02;;;;;;;12.20;10.80;;;;;;;11.11;86.25;96306.34;108980;1269;23889;-73
2024/02/27 07:53:35;;;;;;;14.20;11.90;;;;;;;11.14;85.66;96306.15;109036;1270;22707;-73
2024/02/27 07:56:09;;;;;;;12.60;10.80;;;;;;;11.13;85.33;96302.08;108974;1271;22523;-73
2024/02/27 07:58:42;;;;;;;13.40;11.30;;;;;;;10.99;84.93;96297.61;108923;1265;22967;-73
2024/02/27 08:01:16;;;;;;;12.60;11.00;;;;;;;10.96;85.14;96299.88;108946;1271;23004;-73
2024/02/27 08:03:48;;;;;;;13.30;11.00;;;;;;;11.55;85.67;96299.80;108936;1271;22580;-73
2024/02/27 08:06:19;;;;;;;15.20;11.20;;;;;;;12.29;85.27;96296.92;108956;1269;22612;-74
2024/02/27 08:08:53;;;;;;;13.80;12.30;;;;;;;13.06;84.93;96296.40;108851;1255;22587;-74
2024/02/27 08:11:26;;;;;;;12.70;11.40;;;;;;;13.94;83.91;96300.45;108874;1272;22882;-74
2024/02/27 08:14:00;;;;;;;11.90;10.60;;;;;;;14.69;83.01;96308.87;108849;1270;22524;-74
2024/02/27 08:16:35;;;;;;;13.80;11.30;;;;;;;15.28;82.47;96307.56;108839;1270;25599;-73
2024/02/27 08:19:06;;;;;;;13.10;11.10;;;;;;;15.68;81.41;96300.27;108921;1272;24251;-74
2024/02/27 08:21:38;;;;;;;11.30;10.10;;;;;;;16.34;80.52;96297.23;108877;1268;22554;-73
2024/02/27 08:24:12;;;;;;;13.20;9.80;;;;;;;17.15;79.69;96298.27;108867;1272;22521;-74
2024/02/27 08:26:45;;;;;;;14.00;11.80;;;;;;;18.05;78.90;96301.34;108982;1271;23815;-74
2024/02/27 08:29:17;;;;;;;11.90;10.30;;;;;;;18.37;76.57;96300.05;108997;1268;24493;-74
2024/02/27 08:31:55;;;;;;;12.60;11.30;;;;;;;19.10;75.79;96298.98;108759;1265;23971;-74
2024/02/27 08:34:29;;;;;;;14.80;12.80;;;;;;;19.40;73.73;96303.59;108987;1266;25346;-74
2024/02/27 08:37:03;;;;;;;13.30;11.60;;;;;;;19.20;73.05;96289.38;108875;1265;22567;-74
2024/02/27 08:39:34;;;;;;;10.10;9.00;;;;;;;19.63;72.55;96287.88;108841;1264;24180;-74
2024/02/27 08:42:06;;;;;;;14.00;9.70;;;;;;;20.27;70.49;96288.35;108965;1265;22517;-74
2024/02/27 08:44:36;;;;;;;12.30;9.30;;;;;;;20.17;68.63;96287.41;108980;1265;22622;-73
2024/02/27 08:47:13;;;;;;;9.70;8.60;;;;;;;20.25;68.32;96290.52;108922;1271;22537;-75
2024/02/27 08:49:44;;;;;;;11.10;8.40;;;;;;;20.46;67.41;96283.73;108848;1271;25303;-74
2024/02/27 08:52:18;;;;;;;11.00;8.90;;;;;;;20.69;66.47;96285.66;108974;1271;25431;-74
2024/02/27 08:54:51;;;;;;;10.40;9.00;;;;;;;20.64;65.13;96286.38;108973;1264;22539;-74
2024/02/27 08:57:28;;;;;;;12.00;8.70;;;;;;;20.54;64.61;96284.55;108959;1268;22963;-75
2024/02/27 09:00:02;;;;;;;9.70;8.50;;;;;;;20.70;64.43;96283.84;108955;1267;22525;-75
2024/02/27 09:02:38;;;;;;;9.90;7.70;;;;;;;21.07;64.67;96284.70;109033;1271;22514;-74
2024/02/27 09:05:13;;;;;;;10.00;8.00;;;;;;;21.28;64.10;96286.40;108775;1266;22529;-75
2024/02/27 09:07:45;;;;;;;11.20;8.70;;;;;;;21.04;62.90;96286.41;109008;1265;24487;-74
2024/02/27 09:10:18;;;;;;;9.80;7.30;;;;;;;20.64;62.13;96287.46;108959;1271;22521;-74
2024/02/27 09:12:50;;;;;;;11.50;8.80;;;;;;;20.50;62.16;96289.75;108958;1265;22521;-74
2024/02/27 09:15:24;;;;;;;9.70;8.00;;;;;;;20.24;61.31;96289.04;108903;1267;22532;-75
2024/02/27 09:17:56;;;;;;;9.50;8.40;;;;;;;20.02;61.10;96291.81;108858;1269;24849;-75
2024/02/27 09:20:31;;;;;;;9.90;8.90;;;;;;;19.78;60.84;96295.11;109185;1268;25431;-75
2024/02/27 09:23:03;;;;;;;10.70;8.60;;;;;;;19.35;60.38;96293.33;109145;1266;25302;-74
2024/02/27 09:25:34;;;;;;;12.00;8.80;;;;;;;18.83;60.02;96293.21;109201;1271;22545;-75
2024/02/27 09:28:08;;;;;;;14.00;8.80;;;;;;;18.50;60.38;96283.97;109154;1267;22666;-74
2024/02/27 09:30:43;;;;;;;11.80;8.30;;;;;;;18.58;60.78;96283.76;109100;1271;23843;-75
2024/02/27 09:33:22;;;;;;;11.40;8.40;;;;;;;18.71;61.05;96282.95;109184;1266;22535;-75
2024/02/27 09:36:00;;;;;;;11.50;8.30;;;;;;;18.74;60.45;96289.95;109213;1271;22486;-75
2024/02/27 09:38:32;;;;;;;11.50;8.90;;;;;;;18.62;59.96;96286.88;109122;1269;22535;-74
2024/02/27 09:41:04;;;;;;;12.00;8.80;;;;;;;18.63;60.42;96289.38;109103;1271;42283;-74
2024/02/27 09:43:42;;;;;;;10.60;9.30;;;;;;;18.85;60.34;96291.36;109053;1271;22563;-75
2024/02/27 09:46:18;;;;;;;12.50;9.40;;;;;;;18.59;59.05;96290.95;109130;1265;25425;-74
2024/02/27 09:48:52;;;;;;;11.50;8.30;;;;;;;18.43;59.43;96291.73;109070;1271;22649;-74
2024/02/27 09:51:27;;;;;;;11.10;9.30;;;;;;;18.44;59.30;96292.35;109031;1265;63430;-74
2024/02/27 09:54:01;;;;;;;10.30;8.40;;;;;;;18.57;59.66;96293.71;108948;1268;23172;-74
2024/02/27 09:56:38;;;;;;;10.20;8.20;;;;;;;18.68;59.62;96294.91;109055;1271;22539;-74
2024/02/27 09:59:09;;;;;;;11.50;8.70;;;;;;;18.87;59.64;96293.17;109021;1265;25065;-74
2024/02/27 10:01:48;;;;;;;23.80;10.10;;;;;;;18.95;59.17;96292.79;109003;1271;22526;-74
2024/02/27 10:04:23;;;;;;;10.40;8.00;;;;;;;18.92;58.79;96290.65;108980;1271;22689;-74
2024/02/27 10:06:56;;;;;;;10.60;7.90;;;;;;;18.91;58.79;96287.25;108997;1271;22524;-74
2024/02/27 10:09:38;;;;;;;10.30;7.80;;;;;;;18.88;58.31;96289.17;108966;1271;22537;-74
2024/02/27 10:12:13;;;;;;;11.30;7.70;;;;;;;18.92;58.38;96289.35;109005;1268;22633;-74
2024/02/27 10:14:51;;;;;;;9.00;7.70;;;;;;;19.09;58.62;96289.15;108999;1265;22473;-74
2024/02/27 10:17:23;;;;;;;11.70;8.10;;;;;;;19.17;58.29;96287.83;108986;1270;24242;-74
2024/02/27 10:19:55;;;;;;;10.90;8.00;;;;;;;19.00;57.78;96290.02;109002;1268;22838;-74
2024/02/27 10:22:29;;;;;;;9.50;7.60;;;;;;;18.98;57.93;96289.51;109007;1271;24903;-74
2024/02/27 10:25:14;;;;;;;11.80;8.00;;;;;;;18.88;57.54;96292.23;108979;1265;22518;-75
2024/02/27 10:27:48;;;;;;;11.20;8.10;;;;;;;18.56;57.22;96292.06;108912;1270;24863;-73
2024/02/27 10:30:26;;;;;;;9.00;7.20;;;;;;;18.43;57.41;96291.13;108925;1264;23830;-73
2024/02/27 10:33:03;;;;;;;9.90;7.20;;;;;;;18.19;56.92;96293.60;108968;1271;22540;-73
2024/02/27 10:35:36;;;;;;;7.70;6.90;;;;;;;17.94;56.84;96292.39;108954;1265;24318;-73
2024/02/27 10:38:21;;;;;;;13.10;8.10;;;;;;;17.98;57.22;96290.74;108954;1271;23757;-73
2024/02/27 10:40:55;;;;;;;8.50;7.60;;;;;;;18.04;57.14;96290.11;108969;1271;22546;-73
2024/02/27 10:43:38;;;;;;;11.90;8.00;;;;;;;17.98;57.01;96290.69;108896;1271;22584;-74
2024/02/27 10:46:10;;;;;;;9.90;7.50;;;;;;;18.04;57.12;96285.67;108974;1271;22525;-73
2024/02/27 10:48:44;;;;;;;11.10;8.00;;;;;;;18.09;56.89;96287.45;108989;1253;22596;-74
2024/02/27 10:51:21;;;;;;;11.70;8.70;;;;;;;17.99;56.55;96289.10;108943;1265;22534;-73
2024/02/27 10:54:01;;;;;;;10.10;8.40;;;;;;;18.04;56.89;96290.50;108932;1271;24016;-73
2024/02/27 10:56:37;;;;;;;9.60;8.00;;;;;;;18.38;57.41;96285.59;108920;1271;22591;-74
2024/02/27 10:59:09;;;;;;;8.50;7.10;;;;;;;18.74;57.49;96286.34;108954;1265;22560;-74
2024/02/27 11:01:50;;;;;;;8.70;7.10;;;;;;;19.04;56.73;96286.89;108837;1272;25562;-74
2024/02/27 11:04:27;;;;;;;13.10;7.80;;;;;;;19.22;56.32;96286.42;108715;1272;22526;-74
2024/02/27 11:07:01;;;;;;;9.80;6.80;;;;;;;19.35;55.70;96279.42;108856;1265;23244;-75
2024/02/27 11:09:34;;;;;;;6.20;5.10;;;;;;;19.39;54.36;96278.52;108858;1271;22831;-74
2024/02/27 11:12:09;;;;;;;7.50;5.40;;;;;;;18.95;51.38;96277.43;108904;1268;24585;-74
2024/02/27 11:14:45;;;;;;;8.90;6.30;;;;;;;18.62;51.51;96283.67;108937;1271;24421;-74
2024/02/27 11:17:23;;;;;;;9.00;5.80;;;;;;;18.55;51.83;96282.98;108954;1265;22538;-75
2024/02/27 11:19:58;;;;;;;7.40;5.90;;;;;;;18.48;51.88;96284.84;108883;1268;52750;-75
2024/02/27 11:22:30;;;;;;;7.50;6.20;;;;;;;18.47;52.25;96287.56;108916;1265;22640;-75
2024/02/27 11:25:03;;;;;;;8.20;6.50;;;;;;;18.41;51.83;96285.86;108991;1265;22573;-74
2024/02/27 11:27:38;;;;;;;7.90;6.50;;;;;;;18.46;52.76;96285.94;108832;1271;22598;-74
2024/02/27 11:30:20;;;;;;;8.60;6.30;;;;;;;18.66;52.97;96282.55;108814;1269;22520;-74
2024/02/27 11:32:52;;;;;;;8.20;5.20;;;;;;;18.71;52.94;96289.85;108912;1265;23690;-74
2024/02/27 11:35:27;;;;;;;10.00;6.10;;;;;;;18.74;52.89;96289.02;108789;1271;24104;-74
2024/02/27 11:38:02;;;;;;;8.40;5.40;;;;;;;18.78;51.54;96287.98;108770;1265;22506;-75
2024/02/27 11:40:53;;;;;;;6.00;4.60;;;;;;;18.44;50.50;96288.87;108782;1271;23392;-75
2024/02/27 11:43:29;;;;;;;9.30;4.60;;;;;;;17.94;48.03;96288.16;108811;1268;23206;-74
2024/02/27 11:46:37;;;;;;;6.10;4.60;;;;;;;17.49;48.25;96288.45;108950;1249;22533;-74
2024/02/27 11:49:09;;;;;;;6.60;4.40;;;;;;;17.13;48.46;96287.19;108960;1271;25447;-74
2024/02/27 11:51:40;;;;;;;9.20;4.50;;;;;;;17.04;48.72;96285.23;108941;1265;22701;-74
2024/02/27 11:54:35;;;;;;;7.80;4.50;;;;;;;17.10;48.36;96286.45;108964;1265;25424;-74